Tlaxcala, Mexico

2:40 AM CDT on July 07, 2015 (GMT -0500)
Cerro del Marquez | | Change Station
CLOSE
Current Station
Personal Weather Station
Location: Puebla, PUEBLA
Elevation: 7402 ft
Nearby Weather Stations

Elev 7402 ft 19.08 °N, 98.14 °W | Updated 5 minutes ago

Partly Cloudy
Partly Cloudy
57.7 °F
Feels Like 57.7 °F
N
1.0
Wind Variable Wind from ESE
Gusts 2.0 mph

Today
High -- | Low -- °F
--% Chance of Precip.
Yesterday
High -- | Low -- °F
Precip. -- in
7:00 AM 8:15 PM
Waning Gibbous, 67% visible
Pressure 30.38 in
Visibility 8.0 miles
Clouds Few 8000 ft
Dew Point 54 °F
Humidity 86%
Rainfall 0.00 in
Snow Depth Not available.
UV 0 out of 12
Pollen Not available.
Air Quality Not available.
Flu Activity Not available.
METAR MMMX 070654Z 33003KT 8SM FEW080 16/11 A3038 NOSIG RMK 8/030 HZY

More Conditions Fewer Conditions

Pressure 30.38 in
Visibility 8.0 miles
Clouds Few 8000 ft
Dew Point 54 °F
Humidity 86%
Rainfall 0.00 in
Snow Depth Not available.
UV 0 out of 12
Pollen Not available.
Air Quality Not available.
Flu Activity Not available.
METAR MMMX 070654Z 33003KT 8SM FEW080 16/11 A3038 NOSIG RMK 8/030 HZY

More Conditions Fewer Conditions

10-Day Weather Forecast

×

Almanac

Astronomy

Jul. 07, 2015 Rise Set
Actual Time
Civil Twilight
Nautical Twilight
Astronomical Twilight
Moon
Length of Visible Light
Length of Day
Tomorrow will be .
, % of the Moon is Illuminated

Today's Extremes

Country Highs Country Lows

Community

WunderPhotos

Upload Photos

1,835,756 photos uploaded!

WunderBlogs® & News

Nearby

Air Quality

  Air Quality AQ Index Pollutant
Not available.

Snow Depth

Station Depth Elevation

Earthquake Activity

City Distance Mag. Time & Date
Minimum magnitude displayed is 2.5.

Coastal Water Temperatures

Place Temperature

Stations

Nearby Weather Stations

Station Location Temp. Windchill Dew Point Humidity Wind Precip. Elev Updated Type